Time;durP1;ratioP1;P1;durP2;ratioP2;P2;SDS_P1;SDS_P2;PMS_P1;PMS_P2;Temp;Humidity;BMP_temperature;BMP_pressure;BME280_temperature;BME280_humidity;BME280_pressure;Samples;Min_cycle;Max_cycle;Signal;HPM_P1;HPM_P2
2023/04/22 00:00:13;;;;;;;4.10;3.30;;;13.40;93.10;;;;;;5094494;28;21019;-56
2023/04/22 00:02:42;;;;;;;4.33;3.50;;;13.30;93.30;;;;;;5094366;28;20490;-55
2023/04/22 00:05:12;;;;;;;3.60;3.30;;;13.30;93.40;;;;;;5094884;28;20451;-56
2023/04/22 00:07:39;;;;;;;5.30;2.80;;;13.20;93.30;;;;;;5094165;28;20456;-56
2023/04/22 00:10:07;;;;;;;4.97;3.53;;;13.10;93.40;;;;;;5095379;28;20479;-56
2023/04/22 00:12:34;;;;;;;5.00;3.77;;;13.00;94.00;;;;;;5097251;28;20475;-56
2023/04/22 00:15:01;;;;;;;5.63;4.03;;;12.90;94.20;;;;;;5096632;28;20505;-55
2023/04/22 00:17:28;;;;;;;4.90;4.10;;;12.80;94.60;;;;;;5096225;28;20516;-56
2023/04/22 00:19:56;;;;;;;3.90;3.50;;;12.80;95.20;;;;;;5095024;28;20439;-56
2023/04/22 00:22:22;;;;;;;5.87;5.37;;;12.80;94.80;;;;;;5095657;28;20472;-56
2023/04/22 00:24:49;;;;;;;4.20;3.90;;;12.80;94.90;;;;;;5095163;28;20938;-56
2023/04/22 00:27:16;;;;;;;4.60;4.13;;;12.70;95.10;;;;;;5095399;28;20451;-56
2023/04/22 00:29:42;;;;;;;5.23;3.97;;;12.80;95.20;;;;;;5095340;28;20483;-55
2023/04/22 00:32:09;;;;;;;5.63;4.10;;;12.80;95.10;;;;;;5095012;28;20981;-56
2023/04/22 00:34:36;;;;;;;4.53;4.13;;;12.70;95.10;;;;;;5095360;28;20454;-55
2023/04/22 00:37:04;;;;;;;4.90;3.97;;;12.70;95.30;;;;;;5095247;28;20447;-55
2023/04/22 00:39:31;;;;;;;5.60;5.13;;;12.70;95.50;;;;;;5094759;28;20880;-56
2023/04/22 00:41:58;;;;;;;5.00;4.50;;;12.80;95.70;;;;;;5094791;28;20842;-56
2023/04/22 00:44:25;;;;;;;7.20;5.63;;;12.80;95.90;;;;;;5095124;28;20447;-56
2023/04/22 00:46:52;;;;;;;5.10;4.63;;;12.80;95.90;;;;;;5094987;28;20520;-55
2023/04/22 00:49:20;;;;;;;5.33;4.83;;;12.80;95.90;;;;;;5094777;28;20503;-56
2023/04/22 00:51:46;;;;;;;5.90;5.40;;;12.80;95.90;;;;;;5094927;28;20474;-56
2023/04/22 00:54:14;;;;;;;6.47;5.93;;;12.90;96.10;;;;;;5094967;28;20447;-56
2023/04/22 00:56:41;;;;;;;5.57;5.03;;;12.90;96.30;;;;;;5095908;28;20462;-56
2023/04/22 00:59:09;;;;;;;6.37;5.73;;;12.90;96.40;;;;;;5094755;28;20436;-56
2023/04/22 01:01:36;;;;;;;6.10;4.90;;;12.90;96.30;;;;;;5094388;28;20468;-56
2023/04/22 01:04:04;;;;;;;6.00;5.50;;;12.90;96.40;;;;;;5093489;28;20483;-56
2023/04/22 01:06:31;;;;;;;5.90;5.40;;;13.00;96.40;;;;;;5092307;28;20987;-56
2023/04/22 01:08:58;;;;;;;6.97;6.30;;;13.00;96.40;;;;;;5094268;28;20562;-56
2023/04/22 01:11:26;;;;;;;6.20;5.70;;;12.90;96.40;;;;;;5094523;28;20448;-56
2023/04/22 01:13:53;;;;;;;6.73;6.00;;;12.90;96.40;;;;;;5094081;28;20945;-55
2023/04/22 01:16:21;;;;;;;8.70;7.80;;;12.90;96.60;;;;;;5094488;28;20467;-56
2023/04/22 01:18:47;;;;;;;8.20;7.30;;;13.00;96.80;;;;;;5094443;28;20444;-55
2023/04/22 01:21:15;;;;;;;9.40;8.27;;;12.90;96.90;;;;;;5094441;28;20452;-56
2023/04/22 01:23:43;;;;;;;7.93;7.23;;;12.90;97.10;;;;;;5094373;28;20448;-56
2023/04/22 01:26:10;;;;;;;8.57;7.80;;;12.90;97.20;;;;;;5094241;28;20816;-55
2023/04/22 01:28:37;;;;;;;8.57;7.63;;;12.90;97.10;;;;;;5094213;28;20475;-56
2023/04/22 01:31:04;;;;;;;7.57;6.87;;;12.90;97.40;;;;;;5094883;28;20444;-56
2023/04/22 01:33:31;;;;;;;10.07;7.00;;;12.90;97.50;;;;;;5094118;28;20463;-56
2023/04/22 01:35:58;;;;;;;9.63;7.27;;;12.80;97.60;;;;;;5094012;28;20447;-56
2023/04/22 01:38:24;;;;;;;9.47;7.10;;;12.80;98.00;;;;;;5094083;28;20443;-55
2023/04/22 01:40:53;;;;;;;9.53;8.43;;;12.80;98.00;;;;;;5093681;28;20509;-56
2023/04/22 01:43:19;;;;;;;9.50;7.60;;;12.90;98.20;;;;;;5093887;28;20468;-56
2023/04/22 01:45:46;;;;;;;8.00;7.27;;;12.90;98.30;;;;;;5093978;28;20868;-56
2023/04/22 01:48:13;;;;;;;8.60;7.73;;;12.90;98.40;;;;;;5093837;28;20452;-56
2023/04/22 01:50:39;;;;;;;8.93;7.67;;;12.90;98.50;;;;;;5093806;28;20479;-55
2023/04/22 01:53:07;;;;;;;8.60;7.67;;;12.90;98.60;;;;;;5093924;28;20475;-56
2023/04/22 01:55:36;;;;;;;10.93;8.43;;;12.90;98.70;;;;;;5093810;28;20443;-56
2023/04/22 01:58:04;;;;;;;8.33;7.37;;;12.90;98.80;;;;;;5093391;28;20452;-56
2023/04/22 02:00:31;;;;;;;7.83;6.50;;;12.90;98.70;;;;;;5093461;28;20440;-56
2023/04/22 02:02:58;;;;;;;8.53;7.30;;;12.90;98.80;;;;;;5093673;28;20475;-55
2023/04/22 02:05:24;;;;;;;9.00;8.10;;;12.80;98.80;;;;;;5093349;28;20941;-55
2023/04/22 02:07:52;;;;;;;10.50;9.43;;;12.90;99.00;;;;;;5093577;28;20450;-55
2023/04/22 02:10:19;;;;;;;14.57;10.50;;;12.80;99.00;;;;;;5093544;28;20482;-56
2023/04/22 02:12:45;;;;;;;14.13;12.20;;;12.90;99.00;;;;;;5093513;28;20471;-56
2023/04/22 02:15:14;;;;;;;13.27;11.60;;;12.90;99.10;;;;;;5093539;28;20448;-56
2023/04/22 02:17:42;;;;;;;14.17;11.63;;;12.80;99.30;;;;;;5093526;28;20501;-56
2023/04/22 02:20:10;;;;;;;16.20;12.80;;;12.90;99.50;;;;;;5093531;28;20444;-56
2023/04/22 02:22:37;;;;;;;14.57;12.50;;;12.90;99.60;;;;;;5093626;28;20474;-56
2023/04/22 02:25:05;;;;;;;16.10;12.30;;;12.90;99.60;;;;;;5093429;28;20443;-56
2023/04/22 02:27:31;;;;;;;13.13;11.80;;;12.90;99.60;;;;;;5093428;28;20444;-55
2023/04/22 02:29:58;;;;;;;16.03;13.90;;;12.90;99.70;;;;;;5093334;28;20478;-56
2023/04/22 02:32:26;;;;;;;18.77;15.33;;;12.90;99.80;;;;;;5093043;28;21001;-56
2023/04/22 02:34:53;;;;;;;19.33;15.00;;;12.80;99.80;;;;;;5093331;28;20439;-56
2023/04/22 02:37:21;;;;;;;15.73;14.10;;;12.80;99.90;;;;;;5093049;28;20456;-56
2023/04/22 02:39:48;;;;;;;17.77;15.97;;;12.80;99.90;;;;;;5093108;28;20459;-56
2023/04/22 02:42:15;;;;;;;16.33;14.57;;;12.80;99.90;;;;;;5093732;28;20479;-55
2023/04/22 02:44:41;;;;;;;15.67;14.03;;;12.80;99.90;;;;;;5095904;28;20815;-56
2023/04/22 02:47:08;;;;;;;17.33;15.50;;;12.80;99.90;;;;;;5097355;28;20818;-56
2023/04/22 02:49:36;;;;;;;19.80;16.63;;;12.80;99.90;;;;;;5097200;28;20483;-56
2023/04/22 02:52:03;;;;;;;17.27;15.30;;;12.80;99.90;;;;;;5096881;28;20815;-56
2023/04/22 02:54:29;;;;;;;20.50;16.20;;;12.80;99.90;;;;;;5097357;28;20446;-56
2023/04/22 02:56:56;;;;;;;16.87;15.20;;;12.80;99.90;;;;;;5097280;28;20455;-56
2023/04/22 02:59:23;;;;;;;20.23;16.83;;;12.80;99.90;;;;;;5096811;28;20956;-56
2023/04/22 03:01:50;;;;;;;20.00;17.90;;;12.80;99.90;;;;;;5097063;28;20472;-56
2023/04/22 03:04:17;;;;;;;21.50;19.20;;;12.70;99.90;;;;;;5097656;28;20448;-56
2023/04/22 03:06:45;;;;;;;20.57;18.37;;;12.70;99.90;;;;;;5097022;28;20451;-56
2023/04/22 03:09:11;;;;;;;20.60;17.27;;;12.80;99.90;;;;;;5096889;28;20475;-55
2023/04/22 03:11:38;;;;;;;18.40;16.50;;;12.80;99.90;;;;;;5097086;28;20494;-56
2023/04/22 03:14:05;;;;;;;21.37;17.80;;;12.70;99.90;;;;;;5096755;28;20451;-56
2023/04/22 03:16:33;;;;;;;19.70;15.87;;;12.70;99.90;;;;;;5096988;28;20452;-56
2023/04/22 03:18:59;;;;;;;18.23;16.37;;;12.70;99.90;;;;;;5097994;28;20452;-56
2023/04/22 03:21:27;;;;;;;16.07;14.30;;;12.70;99.90;;;;;;5097640;28;20448;-56
2023/04/22 03:23:55;;;;;;;16.90;15.10;;;12.70;99.90;;;;;;5097362;28;20458;-56
2023/04/22 03:26:22;;;;;;;15.77;13.87;;;12.70;99.90;;;;;;5097028;28;20482;-56
2023/04/22 03:28:49;;;;;;;17.07;15.37;;;12.70;99.90;;;;;;5096934;28;20451;-56
2023/04/22 03:31:16;;;;;;;15.83;14.30;;;12.70;99.90;;;;;;5096734;28;20492;-56
2023/04/22 03:33:42;;;;;;;15.20;13.50;;;12.70;99.90;;;;;;5096386;28;20448;-56
2023/04/22 03:36:09;;;;;;;14.93;13.07;;;12.70;99.90;;;;;;5096585;28;20568;-56
2023/04/22 03:38:36;;;;;;;14.40;12.90;;;12.70;99.90;;;;;;5096552;28;20497;-56
2023/04/22 03:41:04;;;;;;;15.70;13.73;;;12.60;99.90;;;;;;5096159;28;20463;-56
2023/04/22 03:43:31;;;;;;;14.13;11.57;;;12.60;99.90;;;;;;5096604;28;20468;-56
2023/04/22 03:45:59;;;;;;;14.10;12.10;;;12.60;99.90;;;;;;5096464;28;20471;-56
2023/04/22 03:48:27;;;;;;;14.07;12.10;;;12.70;99.90;;;;;;5096382;28;20851;-56
2023/04/22 03:50:54;;;;;;;13.87;12.00;;;12.60;99.90;;;;;;5095888;28;20570;-56
2023/04/22 03:53:21;;;;;;;13.53;12.03;;;12.60;99.90;;;;;;5097007;28;20516;-56
2023/04/22 03:55:47;;;;;;;16.40;12.07;;;12.70;99.90;;;;;;5094749;28;20448;-56
2023/04/22 03:58:15;;;;;;;15.10;13.47;;;12.70;99.90;;;;;;5096253;28;20463;-56
2023/04/22 04:00:42;;;;;;;16.40;13.30;;;12.70;99.90;;;;;;5095917;28;20969;-56
2023/04/22 04:03:09;;;;;;;14.50;13.10;;;12.60;99.90;;;;;;5095909;28;20996;-56
2023/04/22 04:05:36;;;;;;;14.47;12.97;;;12.70;99.90;;;;;;5094881;28;20448;-56
2023/04/22 04:08:03;;;;;;;18.73;12.70;;;12.70;99.90;;;;;;5094629;28;20455;-56
2023/04/22 04:10:30;;;;;;;14.13;12.63;;;12.70;99.90;;;;;;5096621;28;20479;-56
2023/04/22 04:12:56;;;;;;;14.17;12.67;;;12.70;99.90;;;;;;5095817;28;20474;-55
2023/04/22 04:15:24;;;;;;;13.83;12.27;;;12.60;99.90;;;;;;5095945;28;20522;-56
2023/04/22 04:17:51;;;;;;;11.80;10.60;;;12.60;99.90;;;;;;5095485;28;20836;-56
2023/04/22 04:20:18;;;;;;;12.93;11.37;;;12.60;99.90;;;;;;5095647;28;20440;-56
2023/04/22 04:22:45;;;;;;;11.50;10.13;;;12.60;99.90;;;;;;5095652;28;20463;-56
2023/04/22 04:25:12;;;;;;;11.60;10.43;;;12.60;99.90;;;;;;5095481;28;20447;-56
2023/04/22 04:27:40;;;;;;;12.70;11.00;;;12.60;99.90;;;;;;5095519;28;20439;-56
2023/04/22 04:30:08;;;;;;;12.77;11.47;;;12.70;99.90;;;;;;5095750;28;20507;-56
2023/04/22 04:32:36;;;;;;;10.63;9.57;;;12.60;99.90;;;;;;5095304;28;20521;-56
2023/04/22 04:35:03;;;;;;;11.33;10.23;;;12.60;99.90;;;;;;5095532;28;20448;-56
2023/04/22 04:37:30;;;;;;;11.73;10.63;;;12.60;99.90;;;;;;5095205;28;20534;-55
2023/04/22 04:39:58;;;;;;;11.90;9.03;;;12.70;99.90;;;;;;5094936;28;20451;-56
2023/04/22 04:42:24;;;;;;;14.13;10.60;;;12.70;99.90;;;;;;5093550;28;20468;-56
2023/04/22 04:44:52;;;;;;;11.67;10.37;;;12.70;99.90;;;;;;5092564;28;20451;-56
2023/04/22 04:47:19;;;;;;;10.90;8.60;;;12.70;99.90;;;;;;5093464;28;20455;-56
2023/04/22 04:49:47;;;;;;;9.00;7.73;;;12.70;99.90;;;;;;5092958;28;20533;-56
2023/04/22 04:52:13;;;;;;;10.07;9.00;;;12.70;99.90;;;;;;5093093;28;20968;-56
2023/04/22 04:54:40;;;;;;;9.30;8.30;;;12.70;99.90;;;;;;5093583;28;20486;-55
2023/04/22 04:57:08;;;;;;;9.47;8.57;;;12.70;99.90;;;;;;5093925;28;20447;-56
2023/04/22 04:59:35;;;;;;;8.80;8.00;;;12.70;99.90;;;;;;5092438;28;20454;-56
2023/04/22 05:02:02;;;;;;;9.20;7.70;;;12.70;99.90;;;;;;5092618;28;20468;-56
2023/04/22 05:04:28;;;;;;;8.63;7.80;;;12.80;99.90;;;;;;5092166;28;20936;-56
2023/04/22 05:06:56;;;;;;;6.80;6.20;;;12.80;99.90;;;;;;5092514;28;20949;-56
2023/04/22 05:09:23;;;;;;;9.77;6.80;;;12.80;99.90;;;;;;5093217;28;20451;-56
2023/04/22 05:11:50;;;;;;;7.03;6.20;;;12.90;99.90;;;;;;5093170;28;20521;-56
2023/04/22 05:14:16;;;;;;;9.57;6.90;;;12.90;99.90;;;;;;5093997;28;20472;-56
2023/04/22 05:16:43;;;;;;;8.37;7.47;;;12.90;99.90;;;;;;5092331;28;20448;-56
2023/04/22 05:19:10;;;;;;;7.70;7.00;;;12.90;99.90;;;;;;5092335;28;20452;-56
2023/04/22 05:21:37;;;;;;;7.57;6.87;;;13.00;99.90;;;;;;5092394;28;20491;-56
2023/04/22 05:24:05;;;;;;;7.60;6.90;;;13.00;99.90;;;;;;5092595;28;20493;-56
2023/04/22 05:26:32;;;;;;;7.97;7.17;;;13.10;99.90;;;;;;5092502;28;20500;-56
2023/04/22 05:28:59;;;;;;;8.97;6.83;;;13.10;99.90;;;;;;5092768;28;20940;-56
2023/04/22 05:31:26;;;;;;;8.27;7.40;;;13.10;99.90;;;;;;5093043;28;21095;-56
2023/04/22 05:33:52;;;;;;;8.23;7.53;;;13.10;99.90;;;;;;5092313;28;20933;-56
2023/04/22 05:36:19;;;;;;;6.63;5.93;;;13.10;99.90;;;;;;5091486;28;20945;-56
2023/04/22 05:38:46;;;;;;;7.07;6.30;;;13.10;99.90;;;;;;5092567;28;20455;-56
2023/04/22 05:41:14;;;;;;;7.17;6.47;;;13.10;99.90;;;;;;5091372;28;20553;-56
2023/04/22 05:43:42;;;;;;;6.37;5.50;;;13.20;99.90;;;;;;5092342;28;21005;-56
2023/04/22 05:46:09;;;;;;;7.80;5.83;;;13.20;99.90;;;;;;5092622;28;20447;-56
2023/04/22 05:48:35;;;;;;;8.27;6.43;;;13.30;99.90;;;;;;5092567;28;20452;-56
2023/04/22 05:51:02;;;;;;;7.00;6.30;;;13.30;99.90;;;;;;5093122;28;20483;-56
2023/04/22 05:53:29;;;;;;;7.90;6.50;;;13.40;99.90;;;;;;5091611;28;20460;-55
2023/04/22 05:55:55;;;;;;;7.43;6.63;;;13.40;99.90;;;;;;5092539;28;20452;-55
2023/04/22 05:58:23;;;;;;;7.10;6.40;;;13.40;99.90;;;;;;5091662;28;20957;-56
2023/04/22 06:00:50;;;;;;;6.47;5.87;;;13.50;99.90;;;;;;5091612;28;20808;-56
2023/04/22 06:03:17;;;;;;;7.07;6.37;;;13.60;99.90;;;;;;5091995;28;20520;-56
2023/04/22 06:05:44;;;;;;;7.10;6.13;;;13.70;99.90;;;;;;5093289;28;20459;-56
2023/04/22 06:08:11;;;;;;;7.03;6.40;;;13.80;99.90;;;;;;5093143;28;20444;-56
2023/04/22 06:10:37;;;;;;;8.83;5.93;;;13.80;99.90;;;;;;5092000;28;20487;-56
2023/04/22 06:13:05;;;;;;;5.90;5.40;;;13.90;99.90;;;;;;5091188;28;20961;-56
2023/04/22 06:15:34;;;;;;;6.00;5.50;;;14.00;99.90;;;;;;5092033;28;20492;-56
2023/04/22 06:18:01;;;;;;;5.60;5.20;;;14.00;99.90;;;;;;5090399;28;20476;-56
2023/04/22 06:20:28;;;;;;;8.10;6.60;;;14.10;99.90;;;;;;5091935;28;20816;-56
2023/04/22 06:22:55;;;;;;;6.37;5.77;;;14.10;99.90;;;;;;5092335;28;20464;-56
2023/04/22 06:25:21;;;;;;;6.53;5.83;;;14.20;99.90;;;;;;5092431;28;20832;-56
2023/04/22 06:27:48;;;;;;;9.57;6.30;;;14.30;99.90;;;;;;5094415;28;20866;-56
2023/04/22 06:30:15;;;;;;;6.70;5.87;;;14.30;99.90;;;;;;5092790;28;20887;-56
2023/04/22 06:32:43;;;;;;;7.87;5.87;;;14.40;99.90;;;;;;5092011;28;20467;-56
2023/04/22 06:35:10;;;;;;;6.73;6.13;;;14.40;99.60;;;;;;5092115;28;20432;-56
2023/04/22 06:37:37;;;;;;;6.27;5.67;;;14.50;99.50;;;;;;5091750;28;20444;-56
2023/04/22 06:40:04;;;;;;;10.73;6.03;;;14.60;99.40;;;;;;5092503;28;20458;-56
2023/04/22 06:42:31;;;;;;;7.30;5.80;;;14.60;99.20;;;;;;5093611;28;20495;-56
2023/04/22 06:44:57;;;;;;;9.10;6.00;;;14.70;99.00;;;;;;5093440;28;20477;-56
2023/04/22 06:47:24;;;;;;;6.50;5.53;;;14.80;98.90;;;;;;5093948;28;20448;-56
2023/04/22 06:49:52;;;;;;;7.53;5.67;;;14.90;98.70;;;;;;5093296;28;20858;-55
2023/04/22 06:52:20;;;;;;;6.20;5.67;;;15.00;98.50;;;;;;5093214;28;20491;-56
2023/04/22 06:54:47;;;;;;;7.43;6.17;;;15.10;98.20;;;;;;5093335;28;20451;-56
2023/04/22 06:57:13;;;;;;;5.90;5.40;;;15.20;98.00;;;;;;5093267;28;20793;-56
2023/04/22 06:59:40;;;;;;;5.10;4.60;;;15.30;97.80;;;;;;5093223;28;20458;-55
2023/04/22 07:02:07;;;;;;;5.17;4.77;;;15.40;97.50;;;;;;5093179;28;20460;-56
2023/04/22 07:04:34;;;;;;;6.37;5.77;;;15.40;97.10;;;;;;5093148;28;20451;-56
2023/04/22 07:07:02;;;;;;;6.90;5.23;;;15.50;97.20;;;;;;5093060;28;20447;-55
2023/04/22 07:09:29;;;;;;;6.87;5.70;;;15.50;97.20;;;;;;5092776;28;20933;-56
2023/04/22 07:11:57;;;;;;;6.63;5.80;;;15.60;97.30;;;;;;5092934;28;20487;-55
2023/04/22 07:14:25;;;;;;;5.87;5.27;;;15.70;97.40;;;;;;5093074;28;20448;-56
2023/04/22 07:16:51;;;;;;;16.83;11.17;;;15.90;97.10;;;;;;5093094;28;20454;-56
2023/04/22 07:19:18;;;;;;;11.80;8.37;;;16.00;96.60;;;;;;5092947;28;20823;-56
2023/04/22 07:21:45;;;;;;;7.10;5.57;;;16.20;96.50;;;;;;5092859;28;20503;-55
2023/04/22 07:24:13;;;;;;;6.40;5.20;;;16.30;96.10;;;;;;5092591;28;20451;-56
2023/04/22 07:26:41;;;;;;;5.80;5.30;;;16.40;94.90;;;;;;5093089;28;20448;-56
2023/04/22 07:29:07;;;;;;;5.10;4.60;;;16.50;94.90;;;;;;5093031;28;20911;-56
2023/04/22 07:31:35;;;;;;;7.93;5.20;;;16.50;94.90;;;;;;5096374;28;20489;-56
2023/04/22 07:34:03;;;;;;;5.33;4.83;;;16.70;95.00;;;;;;5096940;28;20448;-56
2023/04/22 07:36:31;;;;;;;4.10;3.70;;;16.80;95.00;;;;;;5097249;28;20428;-56
2023/04/22 07:38:58;;;;;;;6.03;4.10;;;16.80;93.60;;;;;;5096412;28;20450;-57
2023/04/22 07:41:26;;;;;;;14.30;4.53;;;16.90;92.70;;;;;;5096016;28;20825;-56
2023/04/22 07:43:54;;;;;;;3.83;3.53;;;17.10;93.10;;;;;;5096980;28;20468;-56
2023/04/22 07:46:21;;;;;;;5.40;3.80;;;17.20;92.50;;;;;;5095988;28;20933;-56
2023/04/22 07:48:48;;;;;;;4.27;3.50;;;17.20;91.70;;;;;;5095749;28;20462;-56
2023/04/22 07:51:14;;;;;;;3.70;3.23;;;17.30;91.40;;;;;;5094846;28;20554;-56
2023/04/22 07:53:41;;;;;;;4.70;3.33;;;17.30;92.00;;;;;;5094701;28;20468;-56
2023/04/22 07:56:08;;;;;;;4.63;3.27;;;17.30;92.30;;;;;;5094795;28;20455;-58
2023/04/22 07:58:36;;;;;;;3.13;2.83;;;17.30;91.90;;;;;;5096048;28;20858;-57
2023/04/22 08:01:03;;;;;;;6.03;3.70;;;17.20;90.90;;;;;;5095491;28;20938;-56
2023/04/22 08:03:30;;;;;;;4.40;3.30;;;17.20;90.90;;;;;;5093279;28;20470;-57
2023/04/22 08:05:57;;;;;;;3.30;3.00;;;17.20;91.40;;;;;;5094052;28;20856;-57
2023/04/22 08:08:24;;;;;;;3.90;3.30;;;17.20;91.40;;;;;;5093840;28;20505;-59
2023/04/22 08:10:50;;;;;;;5.43;3.37;;;17.20;91.60;;;;;;5094336;28;20540;-60
2023/04/22 08:13:17;;;;;;;4.20;3.30;;;17.30;92.40;;;;;;5094220;28;21000;-57
2023/04/22 08:15:45;;;;;;;3.83;3.03;;;17.40;92.10;;;;;;5094461;28;20452;-56
2023/04/22 08:18:12;;;;;;;3.37;3.17;;;17.50;92.60;;;;;;5095159;28;20444;-56
2023/04/22 08:20:38;;;;;;;4.70;3.43;;;17.80;93.00;;;;;;5094035;28;20448;-56
2023/04/22 08:23:06;;;;;;;4.13;3.30;;;18.00;91.70;;;;;;5093521;28;20468;-57
2023/04/22 08:25:34;;;;;;;4.33;3.40;;;18.10;90.60;;;;;;5094200;28;20505;-57
2023/04/22 08:28:00;;;;;;;5.10;3.60;;;18.10;90.80;;;;;;5093876;28;20902;-57
2023/04/22 08:30:27;;;;;;;3.17;2.93;;;18.00;91.00;;;;;;5093171;28;20456;-56
2023/04/22 08:32:56;;;;;;;4.00;3.67;;;18.00;90.90;;;;;;5093684;28;20999;-56
2023/04/22 08:35:23;;;;;;;3.63;2.73;;;18.00;92.10;;;;;;5093199;28;20807;-56
2023/04/22 08:37:49;;;;;;;3.30;3.10;;;18.10;90.80;;;;;;5093587;28;20447;-57
2023/04/22 08:40:16;;;;;;;3.47;2.73;;;18.20;90.60;;;;;;5093052;28;20459;-57
2023/04/22 08:42:44;;;;;;;4.77;3.00;;;18.40;90.50;;;;;;5092485;28;20992;-57
2023/04/22 08:45:13;;;;;;;3.60;3.03;;;18.50;89.30;;;;;;5093006;28;21015;-57
2023/04/22 08:47:41;;;;;;;3.30;3.00;;;18.50;88.40;;;;;;5093857;28;20531;-57
2023/04/22 08:50:10;;;;;;;5.33;2.50;;;18.60;87.60;;;;;;5093660;28;20439;-57
2023/04/22 08:52:37;;;;;;;3.33;2.50;;;18.60;87.40;;;;;;5093535;28;20484;-57
2023/04/22 08:55:05;;;;;;;5.57;2.53;;;18.70;87.60;;;;;;5094094;28;20448;-57
2023/04/22 08:57:32;;;;;;;3.97;2.80;;;18.80;86.30;;;;;;5093440;28;20446;-57
2023/04/22 08:59:59;;;;;;;5.33;2.57;;;18.90;86.40;;;;;;5092541;28;20808;-57
2023/04/22 09:02:27;;;;;;;3.50;2.47;;;19.10;84.40;;;;;;5093860;28;20533;-56
2023/04/22 09:04:53;;;;;;;3.40;2.40;;;19.20;83.70;;;;;;5092865;28;20541;-56
2023/04/22 09:07:24;;;;;;;9.20;2.97;;;19.40;83.50;;;;;;5093049;28;20470;-55
2023/04/22 09:09:51;;;;;;;3.73;3.17;;;19.60;83.30;;;;;;5093649;28;20424;-55
2023/04/22 09:12:18;;;;;;;3.07;2.87;;;19.70;80.90;;;;;;5094182;28;21000;-56
2023/04/22 09:14:46;;;;;;;2.97;2.77;;;20.00;80.90;;;;;;5092849;28;20475;-56
2023/04/22 09:17:15;;;;;;;3.63;2.40;;;20.20;76.80;;;;;;5092554;28;20905;-56
2023/04/22 09:19:42;;;;;;;2.10;2.00;;;20.40;75.10;;;;;;5092630;28;20486;-55
2023/04/22 09:22:12;;;;;;;2.47;2.27;;;20.50;73.50;;;;;;5092792;28;20456;-55
2023/04/22 09:24:44;;;;;;;2.77;2.40;;;20.60;71.50;;;;;;5093341;28;20463;-56
2023/04/22 09:27:11;;;;;;;3.30;2.23;;;20.70;71.90;;;;;;5093439;28;20432;-56
2023/04/22 09:29:37;;;;;;;5.20;2.70;;;20.90;70.90;;;;;;5093513;28;20474;-56
2023/04/22 09:32:10;;;;;;;2.80;2.60;;;21.10;69.30;;;;;;5093544;28;20571;-56
2023/04/22 09:34:46;;;;;;;2.10;1.90;;;21.30;68.80;;;;;;5093935;28;20464;-56
2023/04/22 09:37:13;;;;;;;2.23;2.00;;;21.50;67.20;;;;;;5093069;28;20428;-56
2023/04/22 09:39:43;;;;;;;2.93;1.90;;;21.60;64.90;;;;;;5092422;28;20458;-55
2023/04/22 09:42:11;;;;;;;2.80;2.00;;;21.80;63.40;;;;;;5092297;28;20455;-56
2023/04/22 09:44:39;;;;;;;4.40;2.30;;;22.00;63.80;;;;;;5092675;28;20580;-54
2023/04/22 09:47:07;;;;;;;3.70;2.13;;;22.30;64.30;;;;;;5092697;28;20451;-55
2023/04/22 09:49:37;;;;;;;2.90;2.10;;;22.40;61.70;;;;;;5093470;28;20432;-55
2023/04/22 09:52:04;;;;;;;2.30;2.10;;;22.50;61.30;;;;;;5091771;28;20886;-55
2023/04/22 09:54:31;;;;;;;2.47;1.90;;;22.60;60.60;;;;;;5092396;28;20448;-55
2023/04/22 09:57:00;;;;;;;2.53;2.23;;;22.80;59.50;;;;;;5092477;28;20454;-56
2023/04/22 09:59:29;;;;;;;4.30;2.63;;;22.80;60.20;;;;;;5092786;28;20452;-55
2023/04/22 10:01:58;;;;;;;4.87;2.40;;;23.10;60.70;;;;;;5092220;28;20536;-56
2023/04/22 10:04:25;;;;;;;7.70;2.67;;;23.40;60.80;;;;;;5093379;28;20474;-56
2023/04/22 10:06:53;;;;;;;4.27;2.30;;;23.70;58.20;;;;;;5093103;28;20504;-56
2023/04/22 10:09:23;;;;;;;3.40;2.57;;;23.90;57.20;;;;;;5092757;28;20471;-56
2023/04/22 10:11:52;;;;;;;2.40;2.20;;;24.00;56.50;;;;;;5091909;28;21000;-56
2023/04/22 10:14:21;;;;;;;2.33;2.13;;;23.90;54.80;;;;;;5092364;28;20454;-56
2023/04/22 10:16:48;;;;;;;3.43;2.40;;;23.90;54.80;;;;;;5091618;28;20428;-56
2023/04/22 10:19:19;;;;;;;2.97;2.37;;;24.00;54.50;;;;;;5092164;28;20871;-57
2023/04/22 10:21:49;;;;;;;7.20;2.37;;;24.20;54.60;;;;;;5092954;28;20468;-57
2023/04/22 10:24:17;;;;;;;2.67;2.43;;;24.40;52.70;;;;;;5093092;28;20447;-57
2023/04/22 10:26:49;;;;;;;3.90;2.50;;;24.40;51.70;;;;;;5092876;28;20816;-57
2023/04/22 10:29:18;;;;;;;3.63;2.67;;;23.90;52.90;;;;;;5091659;28;20511;-56
2023/04/22 10:31:55;;;;;;;2.67;2.10;;;23.80;53.60;;;;;;5091538;28;20479;-57
2023/04/22 10:34:22;;;;;;;2.60;2.23;;;23.80;53.20;;;;;;5092778;28;20509;-57
2023/04/22 10:36:58;;;;;;;1.90;1.80;;;23.90;53.60;;;;;;5092990;28;20459;-57
2023/04/22 10:39:26;;;;;;;3.93;2.83;;;24.30;52.80;;;;;;5092835;28;20431;-57
2023/04/22 10:41:56;;;;;;;3.77;2.00;;;24.80;51.80;;;;;;5091417;28;20471;-57
2023/04/22 10:44:27;;;;;;;2.43;2.20;;;25.40;50.10;;;;;;5092165;28;20472;-55
2023/04/22 10:47:00;;;;;;;3.00;2.00;;;26.30;49.60;;;;;;5092466;28;20459;-56
2023/04/22 10:49:29;;;;;;;3.83;2.20;;;27.10;46.80;;;;;;5091555;28;20487;-56
2023/04/22 10:51:58;;;;;;;3.23;2.13;;;27.50;44.40;;;;;;5091682;28;20480;-57
2023/04/22 10:54:57;;;;;;;4.50;2.33;;;28.10;42.80;;;;;;5092292;28;20480;-57
2023/04/22 10:57:36;;;;;;;6.40;2.33;;;28.30;41.50;;;;;;5091926;28;20458;-57
2023/04/22 11:00:24;;;;;;;3.47;2.60;;;28.40;40.50;;;;;;5093211;28;20431;-56
2023/04/22 11:02:55;;;;;;;5.07;2.50;;;28.40;39.40;;;;;;5092519;28;20463;-57
2023/04/22 11:05:24;;;;;;;4.43;2.60;;;27.90;40.30;;;;;;5094351;28;20477;-57
2023/04/22 11:07:53;;;;;;;3.17;2.87;;;27.20;42.00;;;;;;5094720;28;20448;-57
2023/04/22 11:10:39;;;;;;;2.67;2.40;;;26.50;44.00;;;;;;5095708;28;20464;-57
2023/04/22 11:13:08;;;;;;;3.37;2.23;;;25.90;44.80;;;;;;5095235;28;20494;-57
2023/04/22 11:15:37;;;;;;;3.43;2.40;;;25.60;45.20;;;;;;5096097;28;20444;-57
2023/04/22 11:18:09;;;;;;;3.30;2.30;;;25.70;45.20;;;;;;5094796;28;20470;-57
2023/04/22 11:20:36;;;;;;;2.73;2.47;;;25.70;45.00;;;;;;5095242;28;20432;-57
2023/04/22 11:23:04;;;;;;;7.03;2.20;;;25.60;45.90;;;;;;5094585;28;20487;-57
2023/04/22 11:25:31;;;;;;;3.27;2.53;;;25.80;45.90;;;;;;5095407;28;20504;-57
2023/04/22 11:27:58;;;;;;;2.50;2.30;;;26.20;44.60;;;;;;5095264;28;20486;-57
2023/04/22 11:30:27;;;;;;;7.63;2.60;;;26.50;43.90;;;;;;5095821;28;20444;-57
2023/04/22 11:32:55;;;;;;;3.10;2.80;;;26.90;43.20;;;;;;5095627;28;20498;-57
2023/04/22 11:35:26;;;;;;;3.30;2.37;;;27.50;42.20;;;;;;5095281;28;20478;-57
2023/04/22 11:37:55;;;;;;;2.97;2.67;;;28.60;41.40;;;;;;5094945;28;20427;-57
2023/04/22 11:40:24;;;;;;;2.30;2.10;;;29.50;37.60;;;;;;5094417;28;20506;-58
2023/04/22 11:42:51;;;;;;;3.83;2.30;;;29.90;37.40;;;;;;5094840;28;20467;-58
2023/04/22 11:45:18;;;;;;;4.27;2.60;;;30.50;36.30;;;;;;5096754;28;20882;-58
2023/04/22 11:47:45;;;;;;;2.77;2.50;;;30.70;34.90;;;;;;5097422;28;20451;-57
2023/04/22 11:50:13;;;;;;;2.40;2.20;;;31.20;34.50;;;;;;5096590;28;20485;-57
2023/04/22 11:55:33;;;;;;;3.90;2.77;;;32.20;32.40;;;;;;5054261;28;20429;-58
2023/04/22 11:58:05;;;;;;;3.37;3.07;;;32.10;32.70;;;;;;5096610;28;20603;-58
2023/04/22 12:00:35;;;;;;;4.00;2.90;;;32.20;33.20;;;;;;5097422;28;20485;-58
2023/04/22 12:03:03;;;;;;;2.93;2.60;;;32.70;31.80;;;;;;5096228;28;20505;-58
2023/04/22 12:05:39;;;;;;;3.40;2.87;;;32.80;31.90;;;;;;5096470;28;20459;-57
2023/04/22 12:08:12;;;;;;;6.07;2.60;;;32.50;30.80;;;;;;5096354;28;20454;-57
2023/04/22 12:10:43;;;;;;;2.90;2.50;;;31.70;31.60;;;;;;5096283;28;20450;-57
2023/04/22 12:13:11;;;;;;;3.27;2.97;;;30.70;33.90;;;;;;5096728;28;20482;-57
2023/04/22 12:15:43;;;;;;;4.33;2.60;;;29.70;35.40;;;;;;5096013;28;20455;-57
2023/04/22 12:18:11;;;;;;;2.53;2.33;;;28.60;38.30;;;;;;5096559;28;20452;-57
2023/04/22 12:20:39;;;;;;;2.90;2.60;;;27.70;40.40;;;;;;5099611;28;20451;-57
2023/04/22 12:23:14;;;;;;;5.00;2.60;;;27.20;41.90;;;;;;5101713;28;20969;-58
2023/04/22 12:25:41;;;;;;;2.83;2.57;;;26.80;42.50;;;;;;5099042;28;20920;-57
2023/04/22 12:28:08;;;;;;;3.23;2.73;;;26.50;42.60;;;;;;5097668;28;20446;-57
2023/04/22 12:30:35;;;;;;;2.63;2.00;;;26.40;42.90;;;;;;5097546;28;20479;-57
2023/04/22 12:33:01;;;;;;;5.70;3.27;;;26.20;43.00;;;;;;5096400;28;20510;-57
2023/04/22 12:35:28;;;;;;;3.50;2.87;;;26.10;43.60;;;;;;5095845;28;20486;-57
2023/04/22 12:37:55;;;;;;;3.10;2.67;;;26.00;44.60;;;;;;5095739;28;20443;-57
2023/04/22 12:40:23;;;;;;;2.83;2.63;;;25.70;45.80;;;;;;5095311;28;20452;-57
2023/04/22 12:42:50;;;;;;;6.53;2.70;;;25.40;45.80;;;;;;5095483;28;20464;-57
2023/04/22 12:45:16;;;;;;;7.20;2.50;;;24.90;47.00;;;;;;5095652;28;20455;-56
2023/04/22 12:47:44;;;;;;;8.53;2.93;;;24.70;48.10;;;;;;5094433;28;20542;-57